sim
Sign-in with your pilot id or email,
or register
Callsign
Passwort

Schedule Details

Flight Number: OEO7664
Departure: Munich Airport (EDDM) at 06:30
Arrival: Vancouver International Airport (CYVR) at 18:10

Weather Information
Getting current METAR information for EDDM 211950Z 00000KT CAVOK 13/12 Q1016 NOSIG
Getting current METAR information for CYVR 211900Z 11008KT 25SM FEW020 BKN044 BKN090 BKN260 18/12 A2997 RMK CU1SC7AC1CI1 CU TR AC TR CI TR SLP149 DENSITY ALT 300FT

Schedule Frequency

Route Map